Time;durP1;ratioP1;P1;durP2;ratioP2;P2;SDS_P1;SDS_P2;PMS_P1;PMS_P2;Temp;Humidity;BMP_temperature;BMP_pressure;BME280_temperature;BME280_humidity;BME280_pressure;Samples;Min_cycle;Max_cycle;Signal;HPM_P1;HPM_P2
2021/07/20 00:02:35;;;;;;;8.68;4.45;;;;;;;25.48;50.92;100473.25;5034663;28;20056;-70
2021/07/20 00:05:23;;;;;;;8.38;3.95;;;;;;;25.60;50.36;100474.72;5030939;28;20049;-70
2021/07/20 00:08:10;;;;;;;12.23;3.72;;;;;;;25.60;50.56;100480.28;5023751;28;20060;-70
2021/07/20 00:10:59;;;;;;;18.95;5.25;;;;;;;25.50;50.82;100466.06;5035485;28;20052;-71
2021/07/20 00:13:44;;;;;;;9.43;3.60;;;;;;;25.52;50.64;100474.78;5037337;28;20048;-71
2021/07/20 00:16:30;;;;;;;8.90;3.63;;;;;;;25.46;50.95;100475.66;5023250;28;20053;-71
2021/07/20 00:19:15;;;;;;;8.48;3.28;;;;;;;25.40;51.14;100471.78;5023970;28;20064;-70
2021/07/20 00:22:00;;;;;;;13.32;4.10;;;;;;;25.50;50.33;100454.91;5039484;28;20068;-71
2021/07/20 00:24:45;;;;;;;8.05;4.60;;;;;;;25.51;50.64;100470.41;5032484;28;20045;-71
2021/07/20 00:27:29;;;;;;;;;;;;;;;25.47;50.52;100461.34;5031988;28;20040;-71
2021/07/20 00:30:15;;;;;;;14.43;4.43;;;;;;;25.32;51.08;100461.97;5035337;28;20284;-70
2021/07/20 00:33:00;;;;;;;13.15;4.72;;;;;;;25.27;51.29;100457.69;5037723;28;20060;-70
2021/07/20 00:35:46;;;;;;;8.70;3.80;;;;;;;25.22;51.23;100452.59;5020462;28;20156;-70
2021/07/20 00:38:31;;;;;;;8.20;3.53;;;;;;;25.19;51.51;100456.22;5045796;28;20060;-70
2021/07/20 00:41:21;;;;;;;7.65;4.18;;;;;;;25.14;51.73;100454.69;5055437;28;20048;-69
2021/07/20 00:44:06;;;;;;;9.57;3.40;;;;;;;25.07;51.75;100452.03;5038071;28;20044;-71
2021/07/20 00:46:51;;;;;;;14.15;4.40;;;;;;;25.05;51.76;100451.66;5029785;28;20049;-70
2021/07/20 00:49:36;;;;;;;7.32;3.65;;;;;;;25.12;51.18;100453.53;5030569;28;20409;-70
2021/07/20 00:52:22;;;;;;;13.32;4.45;;;;;;;24.99;51.69;100455.34;5028818;28;20111;-71
2021/07/20 00:55:09;;;;;;;10.50;4.20;;;;;;;25.01;51.33;100453.69;5033950;28;20438;-72
2021/07/20 00:57:54;;;;;;;17.52;4.65;;;;;;;24.93;51.86;100445.88;5033462;28;20044;-71
2021/07/20 01:00:40;;;;;;;12.75;5.07;;;;;;;24.93;51.71;100449.47;5041767;28;20043;-72
2021/07/20 01:03:26;;;;;;;15.45;4.25;;;;;;;24.98;51.50;100450.97;5030394;28;20045;-71
2021/07/20 01:06:11;;;;;;;12.85;4.30;;;;;;;25.00;51.51;100445.75;5039041;28;20048;-70
2021/07/20 01:09:03;;;;;;;13.88;4.53;;;;;;;25.07;50.99;100460.38;5033775;28;20056;-69
2021/07/20 01:11:53;;;;;;;8.30;3.83;;;;;;;25.03;51.09;100462.44;5037950;28;20049;-69
2021/07/20 01:14:42;;;;;;;7.13;3.72;;;;;;;25.09;50.34;100462.75;5031950;28;20044;-69
2021/07/20 01:17:29;;;;;;;10.23;3.67;;;;;;;25.10;50.56;100458.72;5041140;28;20044;-69
2021/07/20 01:20:18;;;;;;;10.70;3.70;;;;;;;25.04;50.91;100454.88;5025653;28;20049;-68
2021/07/20 01:23:22;;;;;;;11.85;4.22;;;;;;;24.98;51.10;100451.75;5033544;28;20044;-68
2021/07/20 01:26:10;;;;;;;7.57;4.00;;;;;;;25.00;50.83;100443.78;5055091;28;20048;-70
2021/07/20 01:28:57;;;;;;;14.70;3.85;;;;;;;25.00;50.60;100448.53;5030499;28;20071;-71
2021/07/20 01:31:44;;;;;;;11.77;3.50;;;;;;;24.88;51.29;100449.13;5039481;28;20393;-71
2021/07/20 01:34:33;;;;;;;10.68;3.67;;;;;;;24.91;51.47;100451.06;5040016;28;20416;-70
2021/07/20 01:37:19;;;;;;;9.63;3.83;;;;;;;24.96;50.96;100456.16;5042835;28;20052;-68
2021/07/20 01:40:07;;;;;;;10.38;3.90;;;;;;;25.00;50.50;100442.97;5029622;28;20048;-69
2021/07/20 01:42:53;;;;;;;7.55;3.88;;;;;;;24.84;51.58;100443.56;5033425;28;20056;-69
2021/07/20 01:45:41;;;;;;;12.10;3.83;;;;;;;24.81;51.40;100441.63;5031859;28;20044;-71
2021/07/20 01:48:30;;;;;;;11.88;4.30;;;;;;;24.76;51.80;100449.66;5024172;28;20048;-71
2021/07/20 01:51:16;;;;;;;8.40;4.10;;;;;;;24.78;51.17;100436.13;5031544;28;20049;-70
2021/07/20 01:54:05;;;;;;;9.63;4.22;;;;;;;24.82;50.97;100448.00;5041227;28;20521;-70
2021/07/20 01:56:51;;;;;;;9.63;3.58;;;;;;;24.81;50.76;100441.63;5040138;28;20039;-71
2021/07/20 01:59:42;;;;;;;14.13;3.60;;;;;;;24.70;51.54;100436.22;5032005;28;20053;-71
2021/07/20 02:09:17;;;;;;;11.90;4.30;;;;;;;24.60;51.78;100447.47;5027774;28;20044;-70
2021/07/20 02:12:12;;;;;;;12.43;3.80;;;;;;;24.61;51.57;100444.28;5030379;28;20041;-71
2021/07/20 02:15:24;;;;;;;11.57;3.42;;;;;;;24.59;51.85;100445.91;5035232;28;20048;-72
2021/07/20 02:18:52;;;;;;;9.23;3.47;;;;;;;24.50;51.68;100437.28;5026951;28;20132;-71
2021/07/20 02:22:19;;;;;;;10.35;4.22;;;;;;;24.50;52.02;100438.06;5037120;28;20408;-70
2021/07/20 02:25:06;;;;;;;15.53;3.43;;;;;;;24.45;51.87;100432.97;5045603;28;20545;-70
2021/07/20 02:27:53;;;;;;;6.47;3.67;;;;;;;24.42;52.13;100433.81;5035244;28;20120;-70
2021/07/20 02:30:48;;;;;;;8.83;3.83;;;;;;;24.36;52.78;100437.47;5040639;28;20497;-72
2021/07/20 02:33:36;;;;;;;8.80;3.72;;;;;;;24.46;52.57;100444.88;5036443;28;20040;-71
2021/07/20 02:36:23;;;;;;;9.00;3.67;;;;;;;24.45;52.61;100444.09;5045542;28;20060;-69
2021/07/20 02:39:11;;;;;;;14.30;4.00;;;;;;;24.47;52.65;100450.03;5034048;28;20056;-70
2021/07/20 02:42:01;;;;;;;11.82;4.60;;;;;;;24.48;52.68;100446.03;5034290;28;20056;-67
2021/07/20 02:44:48;;;;;;;12.63;4.68;;;;;;;24.51;52.67;100448.00;5057167;28;20044;-67
2021/07/20 02:47:35;;;;;;;9.68;4.18;;;;;;;24.49;52.74;100447.63;5054051;28;20044;-70
2021/07/20 02:50:24;;;;;;;211.85;37.13;;;;;;;24.74;52.29;100452.09;5034672;28;20040;-67
2021/07/20 02:53:19;;;;;;;40.95;9.48;;;;;;;24.85;51.89;100450.72;5040367;28;20393;-69
2021/07/20 02:56:24;;;;;;;43.80;7.60;;;;;;;24.86;51.51;100455.06;5021785;28;20060;-68
2021/07/20 02:59:18;;;;;;;13.60;4.68;;;;;;;24.97;51.52;100454.97;5016781;28;20125;-68
2021/07/20 03:02:23;;;;;;;16.45;3.95;;;;;;;25.01;51.22;100450.13;5029679;28;20120;-67
2021/07/20 03:05:09;;;;;;;11.68;3.95;;;;;;;25.06;51.22;100447.66;5036846;28;20440;-67
2021/07/20 03:07:59;;;;;;;11.75;3.95;;;;;;;25.11;51.13;100446.41;5040242;28;20433;-68
2021/07/20 03:10:46;;;;;;;13.68;3.80;;;;;;;25.07;51.28;100440.91;5040551;28;20044;-69
2021/07/20 03:13:34;;;;;;;11.02;5.00;;;;;;;25.12;51.08;100445.19;5041154;28;20048;-69
2021/07/20 03:16:22;;;;;;;11.95;5.20;;;;;;;25.15;51.12;100444.34;5039887;28;20151;-67
2021/07/20 03:19:09;;;;;;;12.77;4.07;;;;;;;25.17;51.08;100443.94;5034370;28;20044;-67
2021/07/20 03:21:58;;;;;;;12.52;3.83;;;;;;;25.17;51.07;100436.38;5039391;28;20052;-67
2021/07/20 03:24:46;;;;;;;9.68;3.85;;;;;;;25.17;51.07;100436.38;5036655;28;20052;-68
2021/07/20 03:27:34;;;;;;;12.65;3.97;;;;;;;25.17;51.08;100439.16;5039792;28;20052;-68
2021/07/20 03:30:27;;;;;;;11.10;3.60;;;;;;;25.18;50.98;100454.66;5039839;28;20405;-68
2021/07/20 03:33:13;;;;;;;12.13;4.00;;;;;;;25.14;51.33;100456.72;5040673;28;20064;-67
2021/07/20 03:36:18;;;;;;;15.40;4.30;;;;;;;25.12;51.36;100456.31;5041010;28;20048;-68
2021/07/20 03:39:06;;;;;;;10.48;4.25;;;;;;;25.16;51.18;100457.06;5040522;28;20048;-69
2021/07/20 03:41:52;;;;;;;15.77;4.80;;;;;;;24.89;51.92;100456.28;5040646;28;20520;-68
2021/07/20 03:44:38;;;;;;;7.25;3.03;;;;;;;25.06;51.65;100458.78;5037550;28;20049;-68
2021/07/20 03:47:24;;;;;;;12.93;5.10;;;;;;;25.04;51.12;100455.63;5040499;28;20052;-68
2021/07/20 03:50:14;;;;;;;9.93;4.60;;;;;;;24.98;51.37;100464.88;5040342;28;20429;-67
2021/07/20 03:53:01;;;;;;;7.00;3.65;;;;;;;24.86;51.59;100474.56;5039424;28;20045;-68
2021/07/20 03:55:52;;;;;;;5.97;4.05;;;;;;;25.01;50.83;100475.97;5033045;28;20406;-68
2021/07/20 03:58:39;;;;;;;8.52;3.70;;;;;;;24.98;51.80;100479.59;5036235;28;20068;-67
2021/07/20 04:01:30;;;;;;;12.48;4.72;;;;;;;24.95;50.90;100474.06;5039194;28;20056;-67
2021/07/20 04:04:19;;;;;;;13.38;3.38;;;;;;;25.08;51.20;100473.09;5038276;28;20052;-67
2021/07/20 04:07:25;;;;;;;10.73;4.70;;;;;;;25.11;51.35;100477.81;5039586;28;20048;-68
2021/07/20 04:10:19;;;;;;;16.33;4.82;;;;;;;25.00;51.64;100481.94;5039898;28;20056;-68
2021/07/20 04:13:37;;;;;;;17.90;4.80;;;;;;;24.97;50.95;100478.00;5032792;28;20393;-69
2021/07/20 04:16:39;;;;;;;15.43;4.50;;;;;;;25.01;50.78;100483.50;5039970;28;20044;-69
2021/07/20 04:19:24;;;;;;;12.55;4.90;;;;;;;24.98;50.04;100478.81;5040189;28;20397;-68
2021/07/20 04:22:27;;;;;;;8.90;3.80;;;;;;;25.05;52.24;100478.69;5039640;28;20064;-68
2021/07/20 04:25:14;;;;;;;10.27;4.32;;;;;;;24.84;52.92;100490.84;5035562;28;20060;-68
2021/07/20 04:28:05;;;;;;;6.72;3.75;;;;;;;24.99;52.95;100483.16;5033046;28;20052;-68
2021/07/20 04:30:50;;;;;;;13.18;4.30;;;;;;;25.06;52.89;100489.41;5038691;28;20068;-68
2021/07/20 04:33:37;;;;;;;12.13;4.00;;;;;;;25.09;52.90;100491.34;5039567;28;20064;-68
2021/07/20 04:36:46;;;;;;;11.15;4.88;;;;;;;25.10;53.05;100497.69;5032213;28;20067;-68
2021/07/20 04:39:55;;;;;;;14.93;4.03;;;;;;;25.09;53.01;100496.91;5032867;28;20056;-67
2021/07/20 04:42:43;;;;;;;13.63;4.63;;;;;;;25.06;52.94;100502.53;5037885;28;20052;-68
2021/07/20 04:45:28;;;;;;;10.50;4.20;;;;;;;25.07;52.68;100510.47;5034059;28;20052;-68
2021/07/20 04:48:18;;;;;;;12.77;4.10;;;;;;;25.10;52.44;100508.81;5039168;28;20125;-68
2021/07/20 04:51:11;;;;;;;14.20;4.18;;;;;;;25.09;52.31;100508.03;5038199;28;20547;-67
2021/07/20 04:54:00;;;;;;;12.95;4.30;;;;;;;25.11;52.23;100502.06;5038295;28;20052;-69
2021/07/20 04:56:47;;;;;;;18.52;4.30;;;;;;;25.10;52.27;100498.47;5039117;28;20052;-68
2021/07/20 04:59:32;;;;;;;18.35;3.97;;;;;;;25.08;51.83;100500.91;5033494;28;20048;-68
2021/07/20 05:02:18;;;;;;;17.27;4.38;;;;;;;25.07;51.44;100498.53;5038123;28;20052;-69
2021/07/20 05:05:08;;;;;;;14.13;4.85;;;;;;;25.08;51.15;100500.13;5032595;28;20044;-68
2021/07/20 05:07:59;;;;;;;26.10;5.10;;;;;;;25.08;51.46;100500.13;5039106;28;20072;-68
2021/07/20 05:10:50;;;;;;;14.18;4.38;;;;;;;25.06;51.44;100496.97;5038227;28;20445;-68
2021/07/20 05:13:41;;;;;;;15.07;4.55;;;;;;;25.07;51.29;100495.75;5038667;28;20407;-68
2021/07/20 05:16:27;;;;;;;14.50;6.50;;;;;;;25.06;51.52;100497.75;5037910;28;20048;-68
2021/07/20 05:19:19;;;;;;;17.02;4.38;;;;;;;25.05;51.75;100496.16;5037702;28;20060;-68
2021/07/20 05:22:18;;;;;;;20.23;4.60;;;;;;;25.05;51.97;100501.72;5037734;28;20044;-67
2021/07/20 05:25:13;;;;;;;13.40;4.28;;;;;;;25.07;52.08;100498.53;5032135;28;20048;-68
2021/07/20 05:27:59;;;;;;;8.77;5.28;;;;;;;25.12;52.22;100498.06;5037547;28;20044;-68
2021/07/20 05:30:50;;;;;;;15.60;5.65;;;;;;;25.10;52.25;100497.69;5038562;28;20452;-68
2021/07/20 05:33:37;;;;;;;13.07;4.85;;;;;;;25.07;52.30;100498.53;5037636;28;20048;-67
2021/07/20 05:36:30;;;;;;;16.07;5.30;;;;;;;25.17;52.20;100502.38;5037191;28;20052;-67
2021/07/20 05:39:16;;;;;;;29.70;6.15;;;;;;;25.22;51.58;100505.47;5037475;28;20287;-67
2021/07/20 05:42:07;;;;;;;14.13;4.93;;;;;;;25.30;51.55;100506.16;5038598;28;20048;-68
2021/07/20 05:44:58;;;;;;;16.30;6.40;;;;;;;25.32;50.66;100512.88;5034472;28;20057;-68
2021/07/20 05:47:49;;;;;;;17.38;5.95;;;;;;;25.40;50.29;100517.13;5027058;28;20048;-70
2021/07/20 05:50:38;;;;;;;30.63;5.75;;;;;;;25.34;50.62;100507.69;5046992;28;20048;-70
2021/07/20 05:53:48;;;;;;;14.98;6.35;;;;;;;25.28;50.36;100498.25;5057712;28;20040;-70
2021/07/20 05:56:53;;;;;;;13.63;6.13;;;;;;;25.30;50.01;100514.50;5057879;28;20056;-70
2021/07/20 05:59:49;;;;;;;17.88;6.45;;;;;;;25.33;49.30;100508.91;5016737;28;20292;-69
2021/07/20 06:03:03;;;;;;;15.68;6.97;;;;;;;25.29;49.54;100510.16;5017702;28;20065;-69
2021/07/20 06:05:52;;;;;;;16.00;5.95;;;;;;;25.22;50.74;100511.03;5017672;28;20049;-70
2021/07/20 06:08:39;;;;;;;33.17;7.63;;;;;;;25.25;49.99;100507.41;5020847;28;20053;-70
2021/07/20 06:11:25;;;;;;;27.25;8.85;;;;;;;25.36;49.38;100513.63;5025779;28;20445;-70
2021/07/20 06:14:11;;;;;;;49.20;8.15;;;;;;;25.39;49.15;100515.56;5026613;28;20041;-70
2021/07/20 06:16:56;;;;;;;33.47;8.18;;;;;;;25.43;49.82;100515.50;5029420;28;20069;-69
2021/07/20 06:19:41;;;;;;;28.20;8.85;;;;;;;25.54;49.86;100521.72;5018955;28;20069;-70
2021/07/20 06:22:30;;;;;;;39.55;11.43;;;;;;;25.52;50.04;100516.56;5016628;28;20060;-69
2021/07/20 06:25:21;;;;;;;32.00;8.57;;;;;;;25.62;49.95;100517.63;5017804;28;20054;-70
2021/07/20 06:28:07;;;;;;;37.10;8.65;;;;;;;25.71;49.64;100525.44;5018659;28;20126;-70
2021/07/20 06:30:52;;;;;;;26.38;8.73;;;;;;;25.77;49.37;100524.53;5016083;28;20061;-70
2021/07/20 06:33:38;;;;;;;31.92;7.25;;;;;;;25.83;48.84;100522.84;5020105;28;20508;-69
2021/07/20 06:36:24;;;;;;;26.92;7.55;;;;;;;25.92;49.46;100525.06;5018142;28;20049;-70
2021/07/20 06:39:10;;;;;;;16.55;6.50;;;;;;;25.91;50.11;100535.44;5030774;28;20512;-69
2021/07/20 06:41:56;;;;;;;24.50;6.80;;;;;;;26.08;49.35;100536.34;5030513;28;20397;-69
2021/07/20 06:44:43;;;;;;;19.27;6.82;;;;;;;26.17;48.74;100539.34;5027115;28;20409;-69
2021/07/20 06:47:29;;;;;;;19.58;7.95;;;;;;;26.15;48.64;100547.38;5029214;28;20064;-69
2021/07/20 06:50:18;;;;;;;18.83;7.40;;;;;;;26.37;47.15;100556.16;5034108;28;20053;-69
2021/07/20 06:53:04;;;;;;;20.15;5.70;;;;;;;26.50;46.26;100553.53;5032480;28;20060;-69
2021/07/20 06:55:52;;;;;;;15.40;6.03;;;;;;;26.48;47.27;100551.16;5029912;28;20069;-70
2021/07/20 06:58:40;;;;;;;10.32;5.55;;;;;;;26.58;45.56;100550.16;5020337;28;20077;-71
2021/07/20 07:01:28;;;;;;;14.38;4.72;;;;;;;26.74;45.20;100569.00;5027613;28;20052;-70
2021/07/20 07:04:22;;;;;;;11.45;4.25;;;;;;;26.63;45.33;100569.19;5037847;28;20056;-68
2021/07/20 07:07:08;;;;;;;16.27;3.97;;;;;;;26.79;44.74;100571.28;5041563;28;20052;-69
2021/07/20 07:09:54;;;;;;;13.32;4.20;;;;;;;26.77;45.18;100576.50;5039359;28;20045;-69
2021/07/20 07:12:39;;;;;;;12.35;3.72;;;;;;;26.80;44.63;100568.06;5040623;28;20061;-69
2021/07/20 07:15:25;;;;;;;11.77;4.03;;;;;;;27.01;43.81;100566.09;5038069;28;20537;-70
2021/07/20 07:18:10;;;;;;;13.70;4.30;;;;;;;27.08;43.87;100568.72;5035383;28;20422;-70
2021/07/20 07:20:57;;;;;;;18.02;3.83;;;;;;;27.26;43.31;100571.13;5042643;28;20056;-68
2021/07/20 07:23:43;;;;;;;23.05;4.40;;;;;;;27.35;43.91;100572.13;5040229;28;20413;-69
2021/07/20 07:26:28;;;;;;;12.70;4.10;;;;;;;27.55;43.00;100566.50;5038552;28;20048;-69
2021/07/20 07:29:15;;;;;;;25.05;5.90;;;;;;;27.53;43.25;100566.16;5035382;28;20065;-68
2021/07/20 07:32:00;;;;;;;10.07;4.18;;;;;;;27.62;43.72;100563.53;5039349;28;20040;-69
2021/07/20 07:34:45;;;;;;;18.25;4.40;;;;;;;27.61;42.28;100573.16;5038385;28;20044;-70
2021/07/20 07:37:31;;;;;;;19.02;4.38;;;;;;;27.63;43.10;100573.50;5034790;28;20048;-69
2021/07/20 07:40:17;;;;;;;16.60;4.97;;;;;;;27.73;42.29;100568.88;5039243;28;20056;-70
2021/07/20 07:43:03;;;;;;;13.48;3.88;;;;;;;27.72;42.63;100570.09;5036432;28;20068;-69
2021/07/20 07:45:51;;;;;;;17.27;3.50;;;;;;;27.74;42.63;100571.22;5034234;28;20056;-69
2021/07/20 07:48:39;;;;;;;14.38;4.88;;;;;;;27.75;42.47;100572.78;5038326;28;20072;-69
2021/07/20 07:51:24;;;;;;;8.68;4.18;;;;;;;28.39;40.96;100574.00;5037021;28;20551;-69
2021/07/20 07:54:09;;;;;;;16.95;5.53;;;;;;;28.17;41.61;100573.00;5033927;28;20057;-65
2021/07/20 07:56:54;;;;;;;14.95;4.90;;;;;;;27.88;42.61;100573.69;5040509;28;20511;-68
2021/07/20 07:59:40;;;;;;;9.90;3.75;;;;;;;28.22;42.55;100578.84;5034172;28;20645;-66
2021/07/20 08:02:31;;;;;;;12.63;4.47;;;;;;;28.41;41.08;100577.94;5033945;28;20060;-66
2021/07/20 08:05:16;;;;;;;13.55;4.80;;;;;;;28.61;41.22;100574.19;5033031;28;20048;-66
2021/07/20 08:08:03;;;;;;;15.43;4.53;;;;;;;28.63;41.28;100578.13;5035905;28;20060;-68
2021/07/20 08:10:50;;;;;;;15.35;4.95;;;;;;;28.71;40.90;100573.13;5033458;28;20052;-68
2021/07/20 08:13:38;;;;;;;12.57;4.47;;;;;;;28.67;41.35;100578.81;5037283;28;20405;-67
2021/07/20 08:16:25;;;;;;;9.98;4.30;;;;;;;28.73;40.61;100579.09;5034723;28;20053;-66
2021/07/20 08:19:11;;;;;;;15.75;3.90;;;;;;;28.87;40.28;100575.88;5033146;28;20512;-66
2021/07/20 08:21:59;;;;;;;12.95;3.90;;;;;;;28.86;40.63;100580.69;5037340;28;20045;-65
2021/07/20 08:24:57;;;;;;;11.35;4.38;;;;;;;29.00;40.49;100589.94;5034863;28;20445;-67
2021/07/20 08:27:56;;;;;;;17.08;5.00;;;;;;;29.14;40.18;100586.72;5039740;28;20048;-66
2021/07/20 08:30:44;;;;;;;16.80;4.07;;;;;;;29.08;40.35;100585.69;5035020;28;20409;-66
2021/07/20 08:33:32;;;;;;;6.65;3.90;;;;;;;29.15;40.31;100591.09;5030907;28;20062;-67
2021/07/20 08:36:19;;;;;;;12.52;3.90;;;;;;;29.24;39.55;100580.00;5022139;28;20048;-67
2021/07/20 08:39:05;;;;;;;10.55;3.90;;;;;;;29.35;39.66;100582.50;5035506;28;20060;-65
2021/07/20 08:42:15;;;;;;;13.00;4.13;;;;;;;29.31;39.40;100589.00;5033710;28;20052;-66
2021/07/20 08:45:23;;;;;;;10.85;4.60;;;;;;;29.53;39.87;100583.50;5035318;28;20044;-66
2021/07/20 08:48:24;;;;;;;10.48;4.03;;;;;;;29.56;39.19;100582.59;5033202;28;20124;-66
2021/07/20 08:51:14;;;;;;;15.15;3.58;;;;;;;29.66;39.78;100586.34;5036463;28;20048;-67
2021/07/20 08:54:09;;;;;;;10.57;3.50;;;;;;;29.71;39.11;100591.38;5034453;28;20049;-66
2021/07/20 08:57:00;;;;;;;16.08;4.50;;;;;;;29.68;38.22;100587.44;5037453;28;20049;-67
2021/07/20 08:59:51;;;;;;;12.73;4.57;;;;;;;29.71;38.61;100589.34;5032675;28;20056;-66
2021/07/20 09:02:50;;;;;;;11.25;3.88;;;;;;;29.74;39.32;100590.47;5033595;28;20044;-67
2021/07/20 09:05:39;;;;;;;20.33;4.78;;;;;;;29.77;37.79;100593.16;5032149;28;20417;-66
2021/07/20 09:08:34;;;;;;;11.73;4.20;;;;;;;29.75;37.06;100590.03;5034765;28;20045;-66
2021/07/20 09:11:28;;;;;;;13.05;3.65;;;;;;;29.74;36.96;100591.25;5032420;28;20068;-67
2021/07/20 09:14:33;;;;;;;8.10;3.53;;;;;;;29.90;36.45;100581.97;5035620;28;20041;-66
2021/07/20 09:17:25;;;;;;;17.17;4.10;;;;;;;29.79;35.81;100580.69;5032806;28;20076;-66
2021/07/20 09:20:14;;;;;;;8.77;4.18;;;;;;;29.96;36.22;100587.78;5036779;28;20044;-66
2021/07/20 09:23:16;;;;;;;10.43;4.22;;;;;;;30.12;34.78;100579.22;5034533;28;20052;-66
2021/07/20 09:26:10;;;;;;;6.78;3.60;;;;;;;30.09;36.27;100585.72;5031874;28;20061;-66
2021/07/20 09:29:12;;;;;;;15.93;3.55;;;;;;;30.15;36.81;100592.34;5035239;28;20067;-67
2021/07/20 09:32:13;;;;;;;12.25;4.32;;;;;;;30.16;35.65;100580.69;5032510;28;20057;-66
2021/07/20 09:35:41;;;;;;;10.68;3.65;;;;;;;30.27;34.70;100593.56;5034754;28;20048;-66
2021/07/20 09:38:29;;;;;;;13.55;4.00;;;;;;;30.37;36.51;100592.41;5009316;28;20044;-65
2021/07/20 09:41:39;;;;;;;14.15;4.38;;;;;;;30.40;34.32;100583.84;5035582;28;20052;-66
2021/07/20 09:44:38;;;;;;;8.88;4.15;;;;;;;30.40;35.23;100583.84;5032133;28;20048;-66
2021/07/20 09:47:53;;;;;;;11.45;3.63;;;;;;;30.44;34.66;100584.50;5035640;28;20044;-66
2021/07/20 09:50:44;;;;;;;15.35;4.13;;;;;;;30.37;34.91;100583.97;5032740;28;20052;-67
2021/07/20 09:53:48;;;;;;;11.38;4.20;;;;;;;30.51;35.18;100589.91;5035999;28;20049;-67
2021/07/20 09:57:01;;;;;;;6.22;3.47;;;;;;;30.61;33.87;100581.56;5033542;28;20049;-66
2021/07/20 10:00:05;;;;;;;7.90;3.80;;;;;;;30.66;34.29;100578.94;5031840;28;20074;-66
2021/07/20 10:03:15;;;;;;;9.40;4.15;;;;;;;30.68;33.87;100584.13;5029131;28;20052;-66
2021/07/20 10:06:10;;;;;;;13.00;3.97;;;;;;;30.68;34.23;100575.69;5033477;28;20049;-66
2021/07/20 10:09:02;;;;;;;8.45;3.90;;;;;;;30.76;34.48;100574.19;5030787;28;20040;-66
2021/07/20 10:11:54;;;;;;;9.60;3.55;;;;;;;30.68;35.42;100572.88;5036247;28;20052;-66
2021/07/20 10:15:01;;;;;;;12.65;4.35;;;;;;;30.91;33.67;100578.81;5031894;28;20036;-66
2021/07/20 10:18:14;;;;;;;9.68;3.38;;;;;;;30.87;34.31;100571.75;5031011;28;20044;-66
2021/07/20 10:21:01;;;;;;;10.02;3.67;;;;;;;30.97;34.13;100573.38;5032248;28;20064;-66
2021/07/20 10:24:09;;;;;;;14.18;4.50;;;;;;;30.99;33.50;100573.69;5031788;28;20049;-66
2021/07/20 10:27:01;;;;;;;11.35;3.72;;;;;;;31.05;33.76;100566.28;5033423;28;20056;-66
2021/07/20 10:30:10;;;;;;;13.23;3.42;;;;;;;31.14;32.13;100569.13;5034726;28;20045;-67
2021/07/20 10:32:58;;;;;;;12.88;4.25;;;;;;;31.27;33.27;100567.03;5035459;28;20038;-66
2021/07/20 10:36:09;;;;;;;11.57;3.50;;;;;;;31.31;33.47;100578.13;5025254;28;20416;-67
2021/07/20 10:39:03;;;;;;;10.15;3.65;;;;;;;31.32;32.23;100574.88;5033629;28;20044;-66
2021/07/20 10:42:02;;;;;;;13.95;4.50;;;;;;;31.37;32.85;100571.44;5030631;28;20052;-67
2021/07/20 10:44:58;;;;;;;16.20;4.72;;;;;;;31.36;32.66;100566.28;5033358;28;20076;-67
2021/07/20 10:47:56;;;;;;;12.48;4.03;;;;;;;31.44;33.82;100565.53;5034175;28;20045;-66
2021/07/20 10:50:56;;;;;;;12.65;4.68;;;;;;;31.37;33.31;100565.03;5034174;28;20397;-66
2021/07/20 10:53:41;;;;;;;13.70;3.60;;;;;;;31.36;34.42;100557.84;5038597;28;20429;-66
2021/07/20 10:56:41;;;;;;;16.27;3.55;;;;;;;31.49;33.32;100552.91;5031388;28;20445;-67
2021/07/20 10:59:43;;;;;;;11.93;3.85;;;;;;;31.55;33.90;100559.47;5025071;28;20413;-67
2021/07/20 11:02:52;;;;;;;11.95;3.78;;;;;;;31.59;33.88;100557.38;5036174;28;20040;-66
2021/07/20 11:05:45;;;;;;;12.65;3.72;;;;;;;31.56;34.10;100557.47;5031762;28;20436;-66
2021/07/20 11:08:33;;;;;;;19.88;4.25;;;;;;;31.62;34.71;100558.44;5035147;28;20037;-67
2021/07/20 11:11:25;;;;;;;14.63;4.03;;;;;;;31.69;33.85;100560.97;5034744;28;20520;-66
2021/07/20 11:14:12;;;;;;;11.57;4.70;;;;;;;31.78;34.24;100558.19;5018364;28;20049;-67
2021/07/20 11:16:59;;;;;;;18.17;4.10;;;;;;;31.88;34.58;100553.38;5037369;28;20052;-66
2021/07/20 11:19:46;;;;;;;18.05;4.22;;;;;;;31.81;35.12;100546.78;5033638;28;20048;-66
2021/07/20 11:22:31;;;;;;;12.60;4.28;;;;;;;31.93;33.66;100547.91;5019592;28;20516;-66
2021/07/20 11:25:17;;;;;;;12.32;4.03;;;;;;;32.00;34.68;100546.84;5023915;28;20048;-65
2021/07/20 11:28:02;;;;;;;17.17;4.72;;;;;;;32.03;33.94;100532.59;5029128;28;20052;-67
2021/07/20 11:30:51;;;;;;;18.40;3.85;;;;;;;32.05;33.05;100543.41;5032788;28;20072;-66
2021/07/20 11:33:42;;;;;;;14.80;5.18;;;;;;;32.16;33.50;100541.69;5036990;28;20409;-66
2021/07/20 11:36:36;;;;;;;13.43;3.90;;;;;;;32.26;33.82;100539.66;5040519;28;20044;-67
2021/07/20 11:39:25;;;;;;;8.80;4.30;;;;;;;32.30;33.49;100531.09;5037787;28;20044;-66
2021/07/20 11:42:23;;;;;;;14.25;4.72;;;;;;;32.24;33.80;100531.72;5036831;28;20044;-66
2021/07/20 11:45:09;;;;;;;16.52;4.55;;;;;;;32.36;33.57;100529.97;5033684;28;20064;-65
2021/07/20 11:48:04;;;;;;;77.30;7.05;;;;;;;32.44;33.53;100533.28;5036239;28;20504;-67
2021/07/20 11:51:02;;;;;;;8.35;3.83;;;;;;;32.42;32.67;100518.88;5035461;28;20048;-67
2021/07/20 11:54:09;;;;;;;15.85;5.07;;;;;;;32.42;32.60;100514.03;5033334;28;20060;-66
2021/07/20 11:56:58;;;;;;;13.18;4.53;;;;;;;32.47;33.21;100515.44;5034068;28;20061;-66
2021/07/20 11:59:48;;;;;;;15.35;4.60;;;;;;;32.60;32.22;100513.22;5032524;28;20048;-67
2021/07/20 12:02:51;;;;;;;13.73;4.75;;;;;;;32.38;32.84;100512.63;5035342;28;20048;-67
2021/07/20 12:05:36;;;;;;;8.80;4.32;;;;;;;32.42;34.32;100514.03;5029024;28;20052;-67
2021/07/20 12:08:45;;;;;;;9.13;4.35;;;;;;;32.46;32.91;100517.47;5030358;28;20048;-67
2021/07/20 12:11:32;;;;;;;11.98;4.53;;;;;;;32.40;33.03;100505.28;5045209;28;20404;-67
2021/07/20 12:14:17;;;;;;;15.88;4.22;;;;;;;32.50;32.43;100509.66;5030710;28;20041;-66
2021/07/20 12:17:04;;;;;;;16.02;4.93;;;;;;;32.51;33.77;100504.81;5036402;28;20068;-66
2021/07/20 12:19:55;;;;;;;14.52;4.75;;;;;;;32.60;33.11;100496.34;5034808;28;20523;-63
2021/07/20 12:22:41;;;;;;;21.05;4.43;;;;;;;32.61;32.39;100495.09;5027011;28;20052;-65
2021/07/20 12:25:27;;;;;;;12.23;4.03;;;;;;;32.69;32.60;100504.78;5015000;28;20065;-64
2021/07/20 12:28:12;;;;;;;17.85;5.60;;;;;;;32.67;32.88;100494.00;5020014;28;20048;-65
2021/07/20 12:30:59;;;;;;;11.32;4.60;;;;;;;32.59;32.46;100501.19;5039663;28;20045;-66
2021/07/20 12:33:49;;;;;;;16.00;5.80;;;;;;;32.63;32.20;100493.34;5039083;28;20652;-66
2021/07/20 12:36:35;;;;;;;15.30;5.65;;;;;;;32.75;32.89;100490.84;5039634;28;20044;-66
2021/07/20 12:39:21;;;;;;;10.90;4.60;;;;;;;32.80;32.20;100488.19;5039541;28;20413;-66
2021/07/20 12:42:06;;;;;;;33.25;6.72;;;;;;;32.75;33.11;100483.19;5025798;28;20057;-67
2021/07/20 12:45:04;;;;;;;13.32;4.72;;;;;;;32.82;32.57;100484.88;5015985;28;20052;-66
2021/07/20 12:47:50;;;;;;;12.80;4.72;;;;;;;32.93;33.01;100480.31;5019545;28;20060;-65
2021/07/20 12:50:37;;;;;;;22.13;4.95;;;;;;;32.88;32.03;100474.53;5019560;28;20057;-66
2021/07/20 12:53:25;;;;;;;15.88;4.75;;;;;;;32.76;31.83;100478.34;5012952;28;20053;-65
2021/07/20 12:56:18;;;;;;;11.35;4.03;;;;;;;32.84;31.41;100466.25;5057074;28;20045;-66
2021/07/20 12:59:04;;;;;;;9.50;3.67;;;;;;;32.78;31.83;100473.00;5014961;28;20049;-66
2021/07/20 13:01:50;;;;;;;10.77;3.75;;;;;;;32.96;31.82;100475.78;5018415;28;20440;-67
2021/07/20 13:04:35;;;;;;;15.10;4.88;;;;;;;32.82;29.47;100462.34;5012678;28;20256;-64
2021/07/20 13:07:21;;;;;;;11.65;4.35;;;;;;;32.79;29.81;100466.91;5019862;28;20061;-65
2021/07/20 13:10:10;;;;;;;11.95;4.40;;;;;;;32.92;29.54;100472.31;5038669;28;20417;-65
2021/07/20 13:12:57;;;;;;;9.02;3.58;;;;;;;33.00;29.63;100467.94;5038811;28;20059;-66
2021/07/20 13:15:48;;;;;;;9.00;3.95;;;;;;;33.00;29.00;100470.75;5032913;28;20060;-67
2021/07/20 13:18:34;;;;;;;8.43;3.55;;;;;;;33.04;29.08;100465.72;5038835;28;20049;-67